Portada
METAR-TAF:

METAR-TAF

Aeropuertos :

Tenerife Sur, España

Aeropuerto de Tenerife Sur

latitud: 28-03N, longitud: 016-34W, altitud: 64 m

Observación

El informe se hizo hace 22 minutos, a las 05:30 UTC
Viento 4 kt del noreste
Temperatura 20°C
Humedad 68%
Presión 1018 hPa
Visibilidad 10 km o más
Escasas nubes a una altura de 3000 ft

METAR: GCTS 150530Z 05004KT 9999 FEW030 20/14 Q1018 NOSIG

Hora: 06:52 (05:52 UTC)

Pronóstico

El informe se hizo hace 3 horas y 52 minutos, a las 02:00 UTC
Pronóstico válido del 15 a las 03 UTC al 16 a las 03 UTC
Viento 5 kt del norte-noreste
Visibilidad 10 km o más
Escasas nubes a una altura de 3000 ft
Probabilidad 40% :
Temporalmente
del 15 a las 08 UTC al 15 a las 12 UTC
Viento 10 kt del sur-suroeste
Evolucionando progresivamente
del 15 a las 10 UTC al 15 a las 13 UTC
Viento 15 kt del este

TAF: GCTS 150200Z 1503/1603 03005KT 9999 FEW030 TX26/1514Z TN18/1506Z PROB40 TEMPO 1508/1512 20010KT BECMG 1510/1513 08015KT

Observaciones y pronósticos meteorológicos de más de 4000 aeropuertos (mensajes METAR y TAF).

Los puntos amarillos y rojos representan las estaciones disponibles.

Ponga el ratón en el punto deseado para ver el nombre de la estación.

Haga clic para ver las observaciones y los pronósticos meteorológicos.

Para cambiar el mapa : haga clic en los botones verdes con una cruz de color negro para hacer un zoom, en el botón verde con un guión para alejar o en las flechas verdes para mapas adyacentes.


METAR-TAF: